createdAt,value
2018-09-08T00:49:51.662Z,74.59
2018-09-08T00:54:54.991Z,74.58
2018-09-08T00:59:58.325Z,74.40
2018-09-08T02:31:21.539Z,76.17
2018-09-08T02:36:49.970Z,76.12
2018-09-08T02:41:54.063Z,76.08
2018-09-08T03:50:12.484Z,75.88
2018-09-08T03:55:15.022Z,75.89
2018-09-08T05:03:33.196Z,75.61
2018-09-08T05:08:37.315Z,75.68
2018-09-08T05:13:41.411Z,75.43
2018-09-08T05:18:44.748Z,75.31
2018-09-08T05:23:48.082Z,75.20
2018-09-08T05:28:51.408Z,74.95
2018-09-08T05:34:05.080Z,74.24
2018-09-08T05:39:08.422Z,74.13
2018-09-08T05:44:11.755Z,74.27
2018-09-08T05:49:15.089Z,74.05
2018-09-08T05:54:19.192Z,74.02
2018-09-08T05:59:22.523Z,74.07
2018-09-08T06:04:26.627Z,73.84
2018-09-08T06:09:29.962Z,74.05
2018-09-08T06:14:33.288Z,73.51
2018-09-08T06:19:37.462Z,73.62
2018-09-08T06:24:41.504Z,73.66
2018-09-08T06:29:44.835Z,73.70
2018-09-08T06:34:48.166Z,72.95
2018-09-08T06:39:52.282Z,71.99
2018-09-08T06:44:55.691Z,70.85
2018-09-08T06:49:58.974Z,71.76
2018-09-08T06:55:08.140Z,71.51
2018-09-08T07:00:11.470Z,71.13
2018-09-08T07:05:14.799Z,70.97
2018-09-08T07:10:18.900Z,70.78
2018-09-08T07:15:22.231Z,70.08
2018-09-08T07:20:25.563Z,70.08
2018-09-08T07:25:36.482Z,69.96
2018-09-08T07:30:39.807Z,69.30
2018-09-08T07:35:46.411Z,69.45
2018-09-08T07:40:49.861Z,67.91
2018-09-08T07:45:54.898Z,68.50
2018-09-08T07:50:58.199Z,67.57
2018-09-08T07:56:03.450Z,66.65
2018-09-08T08:01:08.531Z,64.10
2018-09-08T08:06:32.701Z,64.36
2018-09-08T08:11:37.189Z,66.80
2018-09-08T08:16:49.311Z,66.24
2018-09-08T08:21:53.548Z,66.14
2018-09-08T08:26:58.283Z,65.03
2018-09-08T08:32:01.658Z,65.61
2018-09-08T08:37:04.996Z,65.52
2018-09-08T08:42:08.335Z,65.22
2018-09-08T08:47:11.669Z,64.90
2018-09-08T08:58:14.683Z,63.92
2018-09-08T09:03:18.780Z,63.31
2018-09-08T09:08:22.430Z,61.43
2018-09-08T09:13:25.548Z,62.34
2018-09-08T09:18:29.163Z,61.69
2018-09-08T09:29:18.843Z,61.17
2018-09-08T09:34:22.166Z,60.94
2018-09-08T09:39:25.503Z,60.90
2018-09-08T09:44:28.852Z,60.48
2018-09-08T09:49:32.174Z,60.03
2018-09-08T09:54:35.918Z,59.29
2018-09-08T09:59:39.251Z,59.08
2018-09-08T10:04:42.772Z,59.19
2018-09-08T10:09:46.108Z,59.07
2018-09-08T10:14:50.204Z,58.89
2018-09-08T10:19:53.634Z,58.50
2018-09-08T10:25:27.895Z,58.92
2018-09-08T10:30:31.236Z,59.01
2018-09-08T10:35:34.579Z,57.90
2018-09-08T10:40:37.908Z,58.17
2018-09-08T10:45:44.475Z,58.60
2018-09-08T10:50:47.849Z,58.13
2018-09-08T10:55:52.014Z,58.13
2018-09-08T11:00:55.426Z,57.43
2018-09-08T11:06:05.721Z,57.12
2018-09-08T11:11:09.730Z,56.45
2018-09-08T11:16:21.681Z,55.84
2018-09-08T11:21:25.596Z,55.61
2018-09-08T11:26:32.730Z,55.28
2018-09-08T11:31:36.131Z,53.99
2018-09-08T11:36:46.242Z,53.81
2018-09-08T11:41:51.577Z,53.54
2018-09-08T11:46:56.918Z,52.13
2018-09-08T11:52:01.880Z,52.78
2018-09-08T11:57:06.322Z,51.15
2018-09-08T12:02:10.607Z,51.44
2018-09-08T12:07:14.435Z,52.12
2018-09-08T12:12:19.468Z,52.32
2018-09-08T12:17:23.965Z,51.41
2018-09-08T12:22:27.536Z,51.90
2018-09-08T12:27:31.322Z,51.96
2018-09-08T12:32:35.775Z,51.94
2018-09-08T12:37:39.899Z,51.73
2018-09-08T12:42:44.063Z,51.20
2018-09-08T12:47:47.399Z,50.71
2018-09-08T12:52:50.738Z,50.21
2018-09-08T12:57:55.115Z,49.52
2018-09-08T13:02:58.467Z,47.04
2018-09-08T13:08:01.844Z,47.86
2018-09-08T13:13:05.171Z,47.90
2018-09-08T13:18:08.507Z,47.08
2018-09-08T13:23:11.834Z,45.67
2018-09-08T13:28:15.170Z,46.49
2018-09-08T13:33:19.263Z,45.36
2018-09-08T13:38:22.602Z,44.02
2018-09-08T13:43:26.704Z,44.79
2018-09-08T13:48:30.035Z,44.99
2018-09-08T13:53:33.367Z,44.74
2018-09-08T13:58:37.479Z,44.85
2018-09-08T14:03:53.339Z,43.81
2018-09-08T14:08:56.672Z,43.36
2018-09-08T14:14:00.399Z,42.94
2018-09-08T14:19:04.035Z,42.42
2018-09-08T14:24:07.370Z,42.30
2018-09-08T14:29:11.464Z,41.74
2018-09-08T14:34:14.787Z,41.01
2018-09-08T14:39:18.122Z,40.51
2018-09-08T14:44:21.465Z,39.68
2018-09-08T14:49:24.803Z,38.15
2018-09-08T14:54:28.128Z,38.87
2018-09-08T14:59:31.455Z,39.04
2018-09-08T15:04:34.825Z,38.34
2018-09-08T15:09:38.154Z,37.96
2018-09-08T15:14:41.475Z,37.78
2018-09-08T15:19:44.818Z,36.89
2018-09-08T15:24:48.150Z,36.56
2018-09-08T15:29:52.235Z,35.22
2018-09-08T15:34:55.606Z,34.36
2018-09-08T15:39:58.990Z,33.80
2018-09-08T15:45:02.287Z,33.69
2018-09-08T15:50:05.621Z,33.76
2018-09-08T15:55:09.711Z,33.42
2018-09-08T16:00:13.054Z,33.21
2018-09-08T16:05:22.259Z,33.40
2018-09-08T16:10:25.587Z,33.28
2018-09-08T16:15:39.927Z,33.24
2018-09-08T16:20:43.254Z,33.13
2018-09-08T16:25:46.584Z,33.75
2018-09-08T16:30:49.919Z,33.59
2018-09-08T16:35:56.587Z,33.46
2018-09-08T16:40:59.920Z,33.43
2018-09-08T16:46:03.248Z,33.67
2018-09-08T16:51:07.844Z,33.49
2018-09-08T16:56:11.571Z,33.79
2018-09-08T17:01:14.910Z,34.17
2018-09-08T17:06:31.869Z,34.75
2018-09-08T17:11:36.163Z,35.01
2018-09-08T17:22:15.985Z,36.83
2018-09-08T17:27:19.309Z,37.44
2018-09-08T17:32:23.488Z,37.83
2018-09-08T17:37:26.768Z,38.23
2018-09-08T17:42:30.855Z,39.08
2018-09-08T17:47:34.193Z,39.55
2018-09-08T17:52:41.231Z,40.44
2018-09-08T17:57:44.571Z,40.75
2018-09-08T18:02:48.200Z,41.13
2018-09-08T18:07:51.756Z,41.57
2018-09-08T18:12:55.845Z,42.36
2018-09-08T18:17:59.167Z,42.64
2018-09-08T18:23:02.519Z,43.18
2018-09-08T18:28:05.843Z,43.43
2018-09-08T18:33:09.172Z,43.97
2018-09-08T18:38:12.499Z,44.26
2018-09-08T18:43:15.830Z,44.76
2018-09-08T18:48:19.981Z,45.01
2018-09-08T18:53:23.295Z,45.59
2018-09-08T18:58:27.396Z,46.14
2018-09-08T19:03:30.723Z,46.06
2018-09-08T19:08:34.065Z,46.22
2018-09-08T19:13:38.170Z,46.72
2018-09-08T19:18:41.508Z,47.39
2018-09-08T19:23:45.595Z,47.68
2018-09-08T19:28:48.938Z,47.88
2018-09-08T19:33:53.035Z,48.36
2018-09-08T19:38:56.367Z,48.70
2018-09-08T19:43:59.702Z,48.94
2018-09-08T19:49:03.821Z,49.42
2018-09-08T19:54:07.923Z,49.86
2018-09-08T19:59:11.250Z,50.08
2018-09-08T20:04:14.596Z,50.46
2018-09-08T20:09:17.990Z,51.38
2018-09-08T20:14:21.310Z,51.80
2018-09-08T20:19:25.425Z,52.55
2018-09-08T20:24:28.759Z,52.61
2018-09-08T20:29:32.095Z,52.77
2018-09-08T20:34:35.417Z,53.22
2018-09-08T20:39:38.747Z,53.62
2018-09-08T20:44:42.070Z,53.87
2018-09-08T20:49:45.407Z,54.40
2018-09-08T20:54:49.511Z,55.58
2018-09-08T20:59:52.860Z,55.58
2018-09-08T21:05:09.347Z,55.46
2018-09-08T21:10:12.688Z,55.51
2018-09-08T21:15:16.789Z,55.77
2018-09-08T21:20:20.144Z,56.03
2018-09-08T21:25:29.948Z,56.19
2018-09-08T21:30:33.320Z,56.34
2018-09-08T21:35:38.442Z,56.58
2018-09-08T21:40:41.787Z,56.87
2018-09-08T21:45:45.898Z,57.36
2018-09-08T21:50:49.994Z,57.55
2018-09-08T21:55:53.335Z,57.90
2018-09-08T22:00:56.690Z,58.32
2018-09-08T22:06:00.018Z,58.50
2018-09-08T22:11:03.352Z,58.96
2018-09-08T22:16:06.688Z,58.99
2018-09-08T22:21:10.019Z,59.39
2018-09-08T22:26:21.030Z,59.71
2018-09-08T22:31:24.361Z,59.91
2018-09-08T22:36:38.412Z,60.08
2018-09-08T22:41:41.746Z,60.62
2018-09-08T22:46:45.071Z,60.43
2018-09-08T22:51:48.416Z,60.73
2018-09-08T22:56:52.541Z,60.82
2018-09-08T23:01:58.877Z,60.93
2018-09-08T23:07:11.735Z,61.11
2018-09-08T23:12:15.069Z,61.34
